createdAt,value
2022-12-05T00:00:37.848Z,28.30
2022-12-05T00:03:05.777Z,32.23
2022-12-05T00:05:32.296Z,35.20
2022-12-05T00:07:58.890Z,31.60
2022-12-05T00:10:25.440Z,31.20
2022-12-05T00:12:51.967Z,32.33
2022-12-05T00:15:18.493Z,31.37
2022-12-05T00:17:45.034Z,30.93
2022-12-05T00:20:11.797Z,30.57
2022-12-05T00:22:39.193Z,32.40
2022-12-05T00:25:06.907Z,34.30
2022-12-05T00:27:34.101Z,30.70
2022-12-05T00:30:01.149Z,35.13
2022-12-05T00:32:30.842Z,34.50
2022-12-05T00:34:57.551Z,33.27
2022-12-05T00:37:24.536Z,28.40
2022-12-05T00:39:51.393Z,29.53
2022-12-05T00:42:17.970Z,29.83
2022-12-05T00:44:44.493Z,29.53
2022-12-05T00:47:11.053Z,33.07
2022-12-05T00:49:37.559Z,32.10
2022-12-05T00:52:04.158Z,30.53
2022-12-05T00:54:30.783Z,32.73
2022-12-05T00:56:57.527Z,28.83
2022-12-05T00:59:24.103Z,28.60
2022-12-05T01:01:51.681Z,30.20
2022-12-05T01:04:21.688Z,30.27
2022-12-05T01:06:49.022Z,30.40
2022-12-05T01:09:18.831Z,28.00
2022-12-05T01:11:45.970Z,28.07
2022-12-05T01:14:14.115Z,28.63
2022-12-05T01:16:43.558Z,28.47
2022-12-05T01:19:20.089Z,25.60
2022-12-05T01:21:47.879Z,26.03
2022-12-05T01:24:15.514Z,24.87
2022-12-05T01:26:42.722Z,24.90
2022-12-05T01:29:10.533Z,24.50
2022-12-05T01:31:37.733Z,24.33
2022-12-05T01:34:07.304Z,25.23
2022-12-05T01:36:34.327Z,23.73
2022-12-05T01:39:01.148Z,25.30
2022-12-05T01:41:31.570Z,22.20
2022-12-05T01:44:06.005Z,24.77
2022-12-05T01:46:37.981Z,23.80
2022-12-05T01:49:10.121Z,24.00
2022-12-05T01:51:40.562Z,22.30
2022-12-05T01:54:09.243Z,26.60
2022-12-05T01:56:36.810Z,23.40
2022-12-05T01:59:06.329Z,22.47
2022-12-05T02:01:33.876Z,24.63
2022-12-05T02:04:00.758Z,22.23
2022-12-05T02:06:28.344Z,21.47
2022-12-05T02:08:55.408Z,24.73
2022-12-05T02:11:24.848Z,24.43
2022-12-05T02:14:00.397Z,24.27
2022-12-05T02:16:51.581Z,21.63
2022-12-05T02:19:45.853Z,23.87
2022-12-05T02:22:31.206Z,21.47
2022-12-05T02:25:22.760Z,24.97
2022-12-05T02:28:01.233Z,23.23
2022-12-05T02:30:37.729Z,23.33
2022-12-05T02:33:20.011Z,22.90
2022-12-05T02:35:58.646Z,22.80
2022-12-05T02:38:31.351Z,20.87
2022-12-05T02:41:20.060Z,21.00
2022-12-05T02:43:57.302Z,22.03
2022-12-05T02:46:27.315Z,21.67
2022-12-05T02:49:08.471Z,22.90
2022-12-05T02:51:47.039Z,20.00
2022-12-05T02:54:21.723Z,21.07
2022-12-05T02:56:49.636Z,21.50
2022-12-05T02:59:22.881Z,20.93
2022-12-05T03:01:50.721Z,21.97
2022-12-05T03:04:20.209Z,22.30
2022-12-05T03:06:54.457Z,21.57
2022-12-05T03:09:38.941Z,20.20
2022-12-05T03:12:05.376Z,19.63
2022-12-05T03:14:37.568Z,21.83
2022-12-05T03:17:10.427Z,19.37
2022-12-05T03:19:55.817Z,20.63
2022-12-05T03:22:31.892Z,21.33
2022-12-05T03:25:00.013Z,19.97
2022-12-05T03:27:47.987Z,23.60
2022-12-05T03:30:18.165Z,20.67
2022-12-05T03:33:10.850Z,20.30
2022-12-05T03:36:06.430Z,18.70
2022-12-05T03:38:57.257Z,21.40
2022-12-05T03:41:35.968Z,19.37
2022-12-05T03:44:33.267Z,19.37
2022-12-05T03:47:33.751Z,16.73
2022-12-05T03:50:05.520Z,17.83
2022-12-05T03:52:57.158Z,17.30
2022-12-05T03:55:29.751Z,16.53
2022-12-05T03:58:01.809Z,18.70
2022-12-05T04:00:32.342Z,17.27
2022-12-05T04:03:02.800Z,16.23
2022-12-05T04:05:42.088Z,15.80
2022-12-05T04:08:17.603Z,16.47
2022-12-05T04:10:48.899Z,16.10
2022-12-05T04:13:25.173Z,16.20
2022-12-05T04:16:17.861Z,15.00
2022-12-05T04:18:57.140Z,15.07
2022-12-05T04:21:38.400Z,16.03
2022-12-05T04:24:35.114Z,15.90
2022-12-05T04:27:31.874Z,15.00
2022-12-05T04:30:03.600Z,15.80
2022-12-05T04:32:41.584Z,13.83
2022-12-05T04:35:17.098Z,17.57
2022-12-05T04:37:48.616Z,16.50
2022-12-05T04:40:25.103Z,16.63
2022-12-05T04:42:54.639Z,15.97
2022-12-05T04:45:24.602Z,18.23
2022-12-05T04:47:57.308Z,18.83
2022-12-05T04:50:27.017Z,19.23
2022-12-05T04:52:56.918Z,20.07
2022-12-05T04:55:26.261Z,22.30
2022-12-05T04:57:55.786Z,20.90
2022-12-05T05:00:22.825Z,19.23
2022-12-05T05:03:00.668Z,19.73
2022-12-05T05:05:28.983Z,21.17
2022-12-05T05:07:55.746Z,18.47
2022-12-05T05:10:44.093Z,17.97
2022-12-05T05:13:10.667Z,17.47
2022-12-05T05:15:37.325Z,18.23
2022-12-05T05:18:04.162Z,18.20
2022-12-05T05:20:30.665Z,16.23
2022-12-05T05:22:58.220Z,17.10
2022-12-05T05:25:25.992Z,22.00
2022-12-05T05:27:55.596Z,21.37
2022-12-05T05:30:24.389Z,25.27
2022-12-05T05:32:52.486Z,25.13
2022-12-05T05:35:19.345Z,25.87
2022-12-05T05:37:46.264Z,23.97
2022-12-05T05:40:14.299Z,24.00
2022-12-05T05:42:49.187Z,23.40
2022-12-05T05:45:16.136Z,22.43
2022-12-05T05:47:43.296Z,24.00
2022-12-05T05:50:10.348Z,22.47
2022-12-05T05:53:02.859Z,24.13
2022-12-05T05:55:29.496Z,24.63
2022-12-05T05:57:56.046Z,19.13
2022-12-05T06:00:22.581Z,19.77
2022-12-05T06:02:49.190Z,19.37
2022-12-05T06:05:15.929Z,21.27
2022-12-05T06:07:42.586Z,25.03
2022-12-05T06:10:09.543Z,20.40
2022-12-05T06:12:36.099Z,23.23
2022-12-05T06:15:02.597Z,26.57
2022-12-05T06:17:30.052Z,24.17
2022-12-05T06:19:56.819Z,24.33
2022-12-05T06:22:23.664Z,23.50
2022-12-05T06:24:50.386Z,24.93
2022-12-05T06:27:16.908Z,25.37
2022-12-05T06:29:43.667Z,24.67
2022-12-05T06:32:10.244Z,26.70
2022-12-05T06:34:37.107Z,24.77
2022-12-05T06:37:04.157Z,30.43
2022-12-05T06:39:30.667Z,27.67
2022-12-05T06:41:57.472Z,31.47
2022-12-05T06:44:26.944Z,28.60
2022-12-05T06:46:54.418Z,33.63
2022-12-05T06:49:25.213Z,33.33
2022-12-05T06:51:55.895Z,40.40
2022-12-05T06:54:22.368Z,44.43
2022-12-05T06:56:48.942Z,45.43
2022-12-05T06:59:15.622Z,44.97
2022-12-05T07:01:42.998Z,40.50
2022-12-05T07:04:20.243Z,43.70
2022-12-05T07:06:50.992Z,43.67
2022-12-05T07:09:20.087Z,47.27
2022-12-05T07:11:48.231Z,45.63
2022-12-05T07:14:31.222Z,39.23
2022-12-05T07:17:01.262Z,45.43
2022-12-05T07:19:27.770Z,44.00
2022-12-05T07:21:54.261Z,44.87
2022-12-05T07:24:20.819Z,44.47
2022-12-05T07:26:47.414Z,44.17
2022-12-05T07:29:13.996Z,43.60
2022-12-05T07:31:40.532Z,45.23
2022-12-05T07:34:07.236Z,45.50
2022-12-05T07:36:34.526Z,44.00
2022-12-05T07:39:01.299Z,43.90
2022-12-05T07:41:30.433Z,40.70
2022-12-05T07:43:58.278Z,42.00
2022-12-05T07:46:26.489Z,43.27
2022-12-05T07:48:53.688Z,41.93
2022-12-05T07:51:20.988Z,45.60
2022-12-05T07:53:48.472Z,44.37
2022-12-05T07:56:17.118Z,50.40
2022-12-05T07:58:45.445Z,49.40
2022-12-05T08:01:15.435Z,54.93
2022-12-05T08:03:42.260Z,51.10
2022-12-05T08:06:11.306Z,58.60
2022-12-05T08:08:38.091Z,58.17
2022-12-05T08:11:10.601Z,55.10
2022-12-05T08:13:37.807Z,58.77
2022-12-05T08:16:06.473Z,53.10
2022-12-05T08:18:33.402Z,59.80
2022-12-05T08:21:05.101Z,65.87
2022-12-05T08:23:32.999Z,62.07
2022-12-05T08:26:16.826Z,70.17
2022-12-05T08:28:44.318Z,71.23
2022-12-05T08:31:16.480Z,77.13
2022-12-05T08:33:43.626Z,77.90
2022-12-05T08:36:13.024Z,82.83
2022-12-05T08:38:39.583Z,85.80
2022-12-05T08:41:12.581Z,82.03
2022-12-05T08:43:39.433Z,84.90
2022-12-05T08:46:06.593Z,84.10
2022-12-05T08:48:34.177Z,82.93
2022-12-05T08:51:06.211Z,73.17
2022-12-05T08:53:32.805Z,69.00
2022-12-05T08:56:04.080Z,73.50
2022-12-05T08:58:30.885Z,79.53
2022-12-05T09:01:08.071Z,81.77
2022-12-05T09:03:35.210Z,74.80
2022-12-05T09:06:07.841Z,72.00
2022-12-05T09:08:34.660Z,67.27
2022-12-05T09:11:17.861Z,68.80
2022-12-05T09:13:45.122Z,71.97
2022-12-05T09:16:14.589Z,68.03
2022-12-05T09:18:41.251Z,73.83
2022-12-05T09:21:13.244Z,60.37
2022-12-05T09:23:40.310Z,71.30
2022-12-05T09:26:08.616Z,71.40
2022-12-05T09:28:35.545Z,69.47
2022-12-05T09:31:04.495Z,72.90
2022-12-05T09:33:33.261Z,67.60
2022-12-05T09:36:13.191Z,68.00
2022-12-05T09:38:40.414Z,70.33
2022-12-05T09:41:21.808Z,68.67
2022-12-05T09:44:03.940Z,70.07
2022-12-05T09:46:52.190Z,75.07
2022-12-05T09:49:19.363Z,76.70
2022-12-05T09:51:52.253Z,72.23
2022-12-05T09:54:22.861Z,70.77
2022-12-05T09:56:51.687Z,84.33
2022-12-05T09:59:20.680Z,73.37
2022-12-05T10:02:04.260Z,77.73
2022-12-05T10:04:47.069Z,74.07
2022-12-05T10:07:34.467Z,66.00
2022-12-05T10:10:27.967Z,72.63
2022-12-05T10:13:32.684Z,77.43
2022-12-05T10:16:03.358Z,71.27
2022-12-05T10:18:44.792Z,73.20
2022-12-05T10:21:53.519Z,68.43
2022-12-05T10:24:38.814Z,78.70
2022-12-05T10:27:14.124Z,68.20
2022-12-05T10:29:47.883Z,71.47
2022-12-05T10:32:31.187Z,72.40
2022-12-05T10:35:14.223Z,76.60
2022-12-05T10:37:46.304Z,71.07
2022-12-05T10:40:13.979Z,72.40
2022-12-05T10:42:40.778Z,70.07
2022-12-05T10:45:14.363Z,73.20
2022-12-05T10:47:40.960Z,71.83
2022-12-05T10:50:21.832Z,67.13
2022-12-05T10:52:48.784Z,63.80
2022-12-05T10:55:18.175Z,62.60
2022-12-05T10:57:51.922Z,68.07
2022-12-05T11:00:23.149Z,65.70
2022-12-05T11:02:50.313Z,66.23
2022-12-05T11:05:27.953Z,63.03
2022-12-05T11:07:56.527Z,67.00
2022-12-05T11:10:38.922Z,62.13
2022-12-05T11:13:24.497Z,68.30
2022-12-05T11:15:55.517Z,66.03
2022-12-05T11:18:25.069Z,64.00
2022-12-05T11:20:52.305Z,65.17
2022-12-05T11:23:30.789Z,65.77
2022-12-05T11:25:58.450Z,67.73
2022-12-05T11:28:32.157Z,66.77
2022-12-05T11:31:17.055Z,64.40
2022-12-05T11:33:43.743Z,61.87
2022-12-05T11:36:19.534Z,64.47
2022-12-05T11:38:46.783Z,61.03
2022-12-05T11:41:35.141Z,59.80
2022-12-05T11:44:39.233Z,56.40
2022-12-05T11:47:27.282Z,52.77
2022-12-05T11:50:35.338Z,57.90
2022-12-05T11:53:29.769Z,59.07
2022-12-05T11:56:32.052Z,57.70
2022-12-05T11:59:13.523Z,52.43
2022-12-05T12:01:52.052Z,51.60
2022-12-05T12:04:37.142Z,53.17
2022-12-05T12:07:36.031Z,59.17
2022-12-05T12:10:14.551Z,55.27
2022-12-05T12:13:03.826Z,51.23
2022-12-05T12:15:44.775Z,48.53
2022-12-05T12:18:40.618Z,51.17
2022-12-05T12:21:38.778Z,49.80
2022-12-05T12:24:27.500Z,52.67
2022-12-05T12:27:18.684Z,48.47
2022-12-05T12:30:12.363Z,46.40
2022-12-05T12:32:53.726Z,43.17
2022-12-05T12:35:59.715Z,40.43
2022-12-05T12:38:51.015Z,43.13
2022-12-05T12:41:39.748Z,42.33
2022-12-05T12:44:12.207Z,46.10
2022-12-05T12:46:46.165Z,40.77
2022-12-05T12:49:30.772Z,42.23
2022-12-05T12:52:10.762Z,44.73
2022-12-05T12:55:03.950Z,40.03
2022-12-05T12:57:57.724Z,48.60
2022-12-05T13:00:45.973Z,49.47
2022-12-05T13:03:17.192Z,46.63
2022-12-05T13:05:53.269Z,44.53
2022-12-05T13:08:36.631Z,45.07
2022-12-05T13:11:08.381Z,46.00
2022-12-05T13:13:40.262Z,48.77
2022-12-05T13:16:08.390Z,43.67
2022-12-05T13:18:35.847Z,49.77
2022-12-05T13:21:08.034Z,47.93
2022-12-05T13:23:41.583Z,45.27
2022-12-05T13:26:11.130Z,44.07
2022-12-05T13:28:47.619Z,42.83
2022-12-05T13:31:17.060Z,40.63
2022-12-05T13:33:49.493Z,43.10
2022-12-05T13:36:38.349Z,39.67
2022-12-05T13:39:39.268Z,44.07
2022-12-05T13:42:18.864Z,38.10
2022-12-05T13:44:55.705Z,39.70
2022-12-05T13:47:22.163Z,42.57
2022-12-05T13:49:56.114Z,38.23
2022-12-05T13:52:27.294Z,40.40
2022-12-05T13:54:59.652Z,41.67
2022-12-05T13:57:38.036Z,34.60
2022-12-05T14:00:21.711Z,44.80
2022-12-05T14:02:51.247Z,38.67
2022-12-05T14:05:20.678Z,38.83
2022-12-05T14:08:02.378Z,39.60
2022-12-05T14:10:35.953Z,40.87
2022-12-05T14:13:14.889Z,38.97
2022-12-05T14:15:43.509Z,41.50
2022-12-05T14:18:23.347Z,38.87
2022-12-05T14:21:08.255Z,37.17
2022-12-05T14:23:55.551Z,37.03
2022-12-05T14:26:43.056Z,38.67
2022-12-05T14:29:25.346Z,42.40
2022-12-05T14:32:10.150Z,36.80
2022-12-05T14:34:47.495Z,39.37
2022-12-05T14:37:16.817Z,38.50
2022-12-05T14:39:50.252Z,40.83
2022-12-05T14:42:23.091Z,42.67
2022-12-05T14:44:51.722Z,37.40
2022-12-05T14:47:22.713Z,41.23
2022-12-05T14:50:21.046Z,39.77
2022-12-05T14:53:25.985Z,35.43
2022-12-05T14:56:16.383Z,38.30
2022-12-05T14:59:04.523Z,32.87
2022-12-05T15:01:49.349Z,37.27
2022-12-05T15:04:17.426Z,37.83
2022-12-05T15:06:52.485Z,32.67
2022-12-05T15:09:56.140Z,36.60
2022-12-05T15:12:31.766Z,36.20
2022-12-05T15:15:08.204Z,37.43
2022-12-05T15:17:43.367Z,33.63
2022-12-05T15:20:34.358Z,32.10
2022-12-05T15:23:41.105Z,35.50
2022-12-05T15:26:45.392Z,32.30
2022-12-05T15:29:16.063Z,36.37
2022-12-05T15:31:48.644Z,33.60
2022-12-05T15:34:44.079Z,29.80
2022-12-05T15:37:30.676Z,36.40
2022-12-05T15:40:14.168Z,35.37
2022-12-05T15:42:40.792Z,36.33
2022-12-05T15:45:18.386Z,32.10
2022-12-05T15:48:09.409Z,34.03
2022-12-05T15:50:50.327Z,32.90
2022-12-05T15:53:44.717Z,35.13
2022-12-05T15:56:20.351Z,32.17
2022-12-05T15:58:50.719Z,38.07
2022-12-05T16:01:25.240Z,31.00
2022-12-05T16:04:29.186Z,29.50
2022-12-05T16:07:00.503Z,35.20
2022-12-05T16:09:31.910Z,32.20
2022-12-05T16:12:15.581Z,32.60
2022-12-05T16:15:00.075Z,33.30
2022-12-05T16:17:30.559Z,34.93
2022-12-05T16:20:25.175Z,30.37
2022-12-05T16:22:54.752Z,30.00
2022-12-05T16:25:33.854Z,29.77
2022-12-05T16:28:08.288Z,30.00
2022-12-05T16:30:36.304Z,28.53
2022-12-05T16:33:13.982Z,31.83
2022-12-05T16:35:43.414Z,28.17
2022-12-05T16:38:31.847Z,29.20
2022-12-05T16:41:04.259Z,38.33
2022-12-05T16:43:31.665Z,32.80
2022-12-05T16:46:20.526Z,34.50
2022-12-05T16:49:10.907Z,33.37
2022-12-05T16:51:58.765Z,35.83
2022-12-05T16:54:25.367Z,43.70
2022-12-05T16:56:52.180Z,40.53
2022-12-05T16:59:26.912Z,39.70
2022-12-05T17:01:53.576Z,41.00
2022-12-05T17:04:20.214Z,41.43
2022-12-05T17:06:47.024Z,41.67
2022-12-05T17:09:13.652Z,40.37
2022-12-05T17:11:43.055Z,41.73
2022-12-05T17:14:18.220Z,43.87
2022-12-05T17:16:45.343Z,43.87
2022-12-05T17:19:12.473Z,37.90
2022-12-05T17:21:42.163Z,40.10
2022-12-05T17:24:18.781Z,42.70
2022-12-05T17:26:46.381Z,39.50
2022-12-05T17:29:13.317Z,44.17
2022-12-05T17:31:39.880Z,41.23
2022-12-05T17:34:15.784Z,41.50
2022-12-05T17:36:42.986Z,41.17
2022-12-05T17:39:09.615Z,39.37
2022-12-05T17:41:36.963Z,40.17
2022-12-05T17:44:04.727Z,38.73
2022-12-05T17:46:31.575Z,41.77
2022-12-05T17:48:58.204Z,35.57
2022-12-05T17:51:24.930Z,40.17
2022-12-05T17:53:53.045Z,38.73
2022-12-05T17:56:19.737Z,39.20
2022-12-05T17:58:46.768Z,41.17
2022-12-05T18:01:16.811Z,35.50
2022-12-05T18:03:43.629Z,36.43
2022-12-05T18:06:10.276Z,33.83
2022-12-05T18:08:39.785Z,34.33
2022-12-05T18:11:06.753Z,36.40
2022-12-05T18:13:34.022Z,34.43
2022-12-05T18:16:01.396Z,31.63
2022-12-05T18:18:29.460Z,35.60
2022-12-05T18:21:05.780Z,31.80
2022-12-05T18:23:32.318Z,29.80
2022-12-05T18:26:00.377Z,33.13
2022-12-05T18:28:27.564Z,31.87
2022-12-05T18:31:15.661Z,30.47
2022-12-05T18:33:46.642Z,31.60
2022-12-05T18:36:21.023Z,31.83
2022-12-05T18:38:55.177Z,28.83
2022-12-05T18:41:23.724Z,29.53
2022-12-05T18:43:51.173Z,31.37
2022-12-05T18:46:17.834Z,32.23
2022-12-05T18:48:47.895Z,28.03
2022-12-05T18:51:21.290Z,26.80
2022-12-05T18:53:53.266Z,30.47
2022-12-05T18:56:26.474Z,35.43
2022-12-05T18:59:14.934Z,36.53
2022-12-05T19:01:42.248Z,35.00
2022-12-05T19:04:12.640Z,34.73
2022-12-05T19:06:41.536Z,38.20
2022-12-05T19:09:12.346Z,35.37
2022-12-05T19:11:47.315Z,34.27
2022-12-05T19:14:14.961Z,34.03
2022-12-05T19:16:41.611Z,30.30
2022-12-05T19:19:09.160Z,33.73
2022-12-05T19:21:37.225Z,31.93
2022-12-05T19:24:05.291Z,29.97
2022-12-05T19:26:32.529Z,29.10
2022-12-05T19:28:59.487Z,28.30
2022-12-05T19:31:27.837Z,31.10
2022-12-05T19:33:56.754Z,31.43
2022-12-05T19:36:27.604Z,26.30
2022-12-05T19:38:55.790Z,27.57
2022-12-05T19:41:25.382Z,32.90
2022-12-05T19:43:52.221Z,31.67
2022-12-05T19:46:24.876Z,29.43
2022-12-05T19:48:53.219Z,28.43
2022-12-05T19:51:20.081Z,31.23
2022-12-05T19:53:47.718Z,28.50
2022-12-05T19:56:22.914Z,28.57
2022-12-05T19:58:51.302Z,30.63
2022-12-05T20:01:21.301Z,30.33
2022-12-05T20:03:50.326Z,25.73
2022-12-05T20:06:18.285Z,24.93
2022-12-05T20:08:46.186Z,30.63
2022-12-05T20:11:19.953Z,30.13
2022-12-05T20:13:48.275Z,26.60
2022-12-05T20:16:19.110Z,29.40
2022-12-05T20:18:46.692Z,29.63
2022-12-05T20:21:16.209Z,30.57
2022-12-05T20:23:45.014Z,29.57
2022-12-05T20:26:13.738Z,30.13
2022-12-05T20:28:41.281Z,29.40
2022-12-05T20:31:11.236Z,27.67
2022-12-05T20:33:38.529Z,30.03
2022-12-05T20:36:17.404Z,27.20
2022-12-05T20:38:45.283Z,28.77
2022-12-05T20:41:17.854Z,28.63
2022-12-05T20:43:49.420Z,26.33
2022-12-05T20:46:19.400Z,28.53
2022-12-05T20:48:48.048Z,26.43
2022-12-05T20:51:22.731Z,25.47
2022-12-05T20:53:49.750Z,26.90
2022-12-05T20:56:19.676Z,25.23
2022-12-05T20:58:48.980Z,29.00
2022-12-05T21:01:17.362Z,28.97
2022-12-05T21:03:46.613Z,28.67
2022-12-05T21:06:23.417Z,28.43
2022-12-05T21:08:52.156Z,28.93
2022-12-05T21:11:19.528Z,28.40
2022-12-05T21:13:46.198Z,28.23
2022-12-05T21:16:18.497Z,28.70
2022-12-05T21:18:45.433Z,26.17
2022-12-05T21:21:15.738Z,28.30
2022-12-05T21:23:43.679Z,28.93
2022-12-05T21:26:14.643Z,25.93
2022-12-05T21:28:42.244Z,27.93
2022-12-05T21:31:11.789Z,26.90
2022-12-05T21:33:39.995Z,27.50
2022-12-05T21:36:07.298Z,29.10
2022-12-05T21:38:34.199Z,27.90
2022-12-05T21:41:03.247Z,27.63
2022-12-05T21:43:29.945Z,29.43
2022-12-05T21:45:56.849Z,30.33
2022-12-05T21:48:24.778Z,33.03
2022-12-05T21:50:52.336Z,34.03
2022-12-05T21:53:20.006Z,36.90
2022-12-05T21:55:47.095Z,33.37
2022-12-05T21:58:14.218Z,35.47
2022-12-05T22:00:40.852Z,32.97
2022-12-05T22:03:07.754Z,38.93
2022-12-05T22:05:34.354Z,33.50
2022-12-05T22:08:04.976Z,39.13
2022-12-05T22:10:36.290Z,34.67
2022-12-05T22:13:03.001Z,30.77
2022-12-05T22:15:29.567Z,28.97
2022-12-05T22:17:56.654Z,29.37
2022-12-05T22:20:24.285Z,29.83
2022-12-05T22:22:51.349Z,29.63
2022-12-05T22:25:17.943Z,29.17
2022-12-05T22:27:44.883Z,30.70
2022-12-05T22:30:11.722Z,32.50
2022-12-05T22:32:38.239Z,31.83
2022-12-05T22:35:05.076Z,27.20
2022-12-05T22:37:31.837Z,28.13
2022-12-05T22:39:58.901Z,27.57
2022-12-05T22:42:28.651Z,31.17
2022-12-05T22:44:55.173Z,26.90
2022-12-05T22:47:21.733Z,31.20
2022-12-05T22:49:48.242Z,29.50
2022-12-05T22:52:15.371Z,26.03
2022-12-05T22:54:42.004Z,27.07
2022-12-05T22:57:08.623Z,26.37
2022-12-05T22:59:35.198Z,27.93
2022-12-05T23:02:01.678Z,24.93
2022-12-05T23:04:28.309Z,25.47
2022-12-05T23:06:54.868Z,26.63
2022-12-05T23:09:21.425Z,22.27
2022-12-05T23:11:50.547Z,24.07
2022-12-05T23:14:17.180Z,26.53
2022-12-05T23:16:43.754Z,21.73
2022-12-05T23:19:10.324Z,22.80
2022-12-05T23:21:40.467Z,21.27
2022-12-05T23:24:12.452Z,23.37
2022-12-05T23:26:45.381Z,19.00
2022-12-05T23:29:13.152Z,18.93
2022-12-05T23:31:40.717Z,19.17
2022-12-05T23:34:07.670Z,15.90
2022-12-05T23:36:35.091Z,16.10
2022-12-05T23:39:02.081Z,18.43
2022-12-05T23:41:28.754Z,15.83
2022-12-05T23:43:55.556Z,17.73
2022-12-05T23:46:24.700Z,12.67
2022-12-05T23:48:52.040Z,11.77
2022-12-05T23:51:25.713Z,12.70
2022-12-05T23:53:54.889Z,15.00
2022-12-05T23:56:24.600Z,9.90
2022-12-05T23:58:51.397Z,9.90
